Time;durP1;ratioP1;P1;durP2;ratioP2;P2;SDS_P1;SDS_P2;PMS_P1;PMS_P2;Temp;Humidity;BMP_temperature;BMP_pressure;BME280_temperature;BME280_humidity;BME280_pressure;Samples;Min_cycle;Max_cycle;Signal;HPM_P1;HPM_P2
2022/03/26 00:01:21;;;;;;;48.67;25.90;;;;;;;;;;5017710;28;20464;-76
2022/03/26 00:03:46;;;;;;;50.97;26.45;;;;;;;;;;5016649;28;20497;-76
2022/03/26 00:06:12;;;;;;;54.90;27.75;;;;;;;;;;5014999;28;20029;-74
2022/03/26 00:08:37;;;;;;;53.13;27.30;;;;;;;;;;5013996;28;20029;-74
2022/03/26 00:11:02;;;;;;;56.72;25.95;;;;;;;;;;5014601;28;20026;-75
2022/03/26 00:13:27;;;;;;;51.53;26.77;;;;;;;;;;5012720;28;20057;-76
2022/03/26 00:15:53;;;;;;;50.55;26.20;;;;;;;;;;5013605;28;20030;-74
2022/03/26 00:18:18;;;;;;;55.72;26.83;;;;;;;;;;5014705;28;20026;-74
2022/03/26 00:20:43;;;;;;;58.78;27.73;;;;;;;;;;5003117;28;20028;-74
2022/03/26 00:23:09;;;;;;;53.80;24.90;;;;;;;;;;5012406;28;20022;-75
2022/03/26 00:25:34;;;;;;;54.35;26.25;;;;;;;;;;5014319;28;20141;-74
2022/03/26 00:27:59;;;;;;;58.97;27.25;;;;;;;;;;5013653;28;20443;-74
2022/03/26 00:30:25;;;;;;;59.47;27.08;;;;;;;;;;5013313;28;20021;-74
2022/03/26 00:32:53;;;;;;;52.30;25.58;;;;;;;;;;5017449;28;20061;-74
2022/03/26 00:35:18;;;;;;;57.00;26.05;;;;;;;;;;5021215;28;20076;-75
2022/03/26 00:37:43;;;;;;;57.05;26.92;;;;;;;;;;5014425;28;20025;-75
2022/03/26 00:40:09;;;;;;;56.88;27.48;;;;;;;;;;5027615;28;20382;-75
2022/03/26 00:42:34;;;;;;;49.28;25.63;;;;;;;;;;5013210;28;20045;-75
2022/03/26 00:44:59;;;;;;;52.20;25.27;;;;;;;;;;5013058;28;20018;-75
2022/03/26 00:47:24;;;;;;;57.85;26.83;;;;;;;;;;5011884;28;20236;-75
2022/03/26 00:49:51;;;;;;;51.72;27.20;;;;;;;;;;5010799;28;20026;-75
2022/03/26 00:52:16;;;;;;;52.05;26.50;;;;;;;;;;5012881;28;20033;-77
2022/03/26 00:54:41;;;;;;;56.05;28.20;;;;;;;;;;5012691;28;20018;-75
2022/03/26 00:57:06;;;;;;;53.33;24.98;;;;;;;;;;5012901;28;20032;-76
2022/03/26 00:59:32;;;;;;;54.55;26.10;;;;;;;;;;5013063;28;20021;-75
2022/03/26 01:01:58;;;;;;;60.92;26.65;;;;;;;;;;5012795;28;20018;-75
2022/03/26 01:04:23;;;;;;;51.53;25.90;;;;;;;;;;5012871;28;20014;-75
2022/03/26 01:06:48;;;;;;;59.33;26.60;;;;;;;;;;5010559;28;20076;-74
2022/03/26 01:09:14;;;;;;;46.60;25.40;;;;;;;;;;5011338;28;20504;-75
2022/03/26 01:11:39;;;;;;;52.20;27.05;;;;;;;;;;5012468;28;20018;-74
2022/03/26 01:14:04;;;;;;;57.63;25.35;;;;;;;;;;5012554;28;20022;-76
2022/03/26 01:16:32;;;;;;;54.63;24.90;;;;;;;;;;5034432;23;20053;-84
2022/03/26 01:18:57;;;;;;;52.38;26.88;;;;;;;;;;5055373;28;20025;-85
2022/03/26 01:21:23;;;;;;;52.63;26.58;;;;;;;;;;5056098;28;20004;-85
2022/03/26 01:23:49;;;;;;;55.72;25.92;;;;;;;;;;5055546;28;20026;-82
2022/03/26 01:26:15;;;;;;;60.92;26.80;;;;;;;;;;5056455;28;20017;-83
2022/03/26 01:28:43;;;;;;;53.85;25.92;;;;;;;;;;5057750;28;20077;-82
2022/03/26 01:31:08;;;;;;;50.42;25.27;;;;;;;;;;5056125;28;20028;-83
2022/03/26 01:33:34;;;;;;;49.33;24.10;;;;;;;;;;5053773;28;20473;-82
2022/03/26 01:35:59;;;;;;;60.03;25.90;;;;;;;;;;5054231;28;20017;-82
2022/03/26 01:38:25;;;;;;;52.13;26.35;;;;;;;;;;5054978;28;20024;-83
2022/03/26 01:40:50;;;;;;;53.28;26.40;;;;;;;;;;5055212;28;20024;-82
2022/03/26 01:43:16;;;;;;;58.03;26.40;;;;;;;;;;5055110;28;20025;-83
2022/03/26 01:45:41;;;;;;;50.42;25.15;;;;;;;;;;5053415;28;20064;-82
2022/03/26 01:48:07;;;;;;;56.50;25.27;;;;;;;;;;5053340;28;20025;-83
2022/03/26 01:50:32;;;;;;;53.58;24.42;;;;;;;;;;5051789;28;20018;-82
2022/03/26 01:52:58;;;;;;;50.83;26.02;;;;;;;;;;5053828;28;20084;-83
2022/03/26 01:55:24;;;;;;;48.45;24.30;;;;;;;;;;5053012;28;20002;-83
2022/03/26 01:57:50;;;;;;;50.03;23.70;;;;;;;;;;5054431;28;20065;-83
2022/03/26 02:00:16;;;;;;;52.05;24.77;;;;;;;;;;5054145;28;20026;-84
2022/03/26 02:02:43;;;;;;;48.38;24.80;;;;;;;;;;5055409;28;20020;-83
2022/03/26 02:05:09;;;;;;;50.70;23.63;;;;;;;;;;5055410;28;20044;-82
2022/03/26 02:07:36;;;;;;;50.80;24.23;;;;;;;;;;5056098;28;20006;-81
2022/03/26 02:10:07;;;;;;;50.22;24.75;;;;;;;;;;5056611;28;20016;-82
2022/03/26 02:12:32;;;;;;;51.85;24.25;;;;;;;;;;5056753;28;20018;-81
2022/03/26 02:14:57;;;;;;;49.25;23.95;;;;;;;;;;5051984;28;20005;-82
2022/03/26 02:17:23;;;;;;;52.13;24.73;;;;;;;;;;5052682;28;20013;-82
2022/03/26 02:19:52;;;;;;;46.22;25.65;;;;;;;;;;5053010;28;20088;-82
2022/03/26 02:22:17;;;;;;;51.70;23.50;;;;;;;;;;5049272;28;20100;-82
2022/03/26 02:24:43;;;;;;;52.47;24.00;;;;;;;;;;5051673;28;20052;-82
2022/03/26 02:27:08;;;;;;;50.60;24.90;;;;;;;;;;5036206;28;20022;-82
2022/03/26 02:29:34;;;;;;;51.97;23.70;;;;;;;;;;5031809;28;20105;-82
2022/03/26 02:31:59;;;;;;;52.63;24.38;;;;;;;;;;5045394;28;20028;-82
2022/03/26 02:34:26;;;;;;;55.33;23.92;;;;;;;;;;5052747;28;20021;-82
2022/03/26 02:36:54;;;;;;;48.92;24.55;;;;;;;;;;5051460;28;20026;-82
2022/03/26 02:39:20;;;;;;;51.60;22.80;;;;;;;;;;5049979;28;20021;-82
2022/03/26 02:41:48;;;;;;;46.80;23.80;;;;;;;;;;5052639;28;20030;-81
2022/03/26 02:44:13;;;;;;;57.38;24.13;;;;;;;;;;5053484;28;20077;-82
2022/03/26 02:46:39;;;;;;;45.83;22.95;;;;;;;;;;5052811;28;20029;-82
2022/03/26 02:49:05;;;;;;;51.38;25.90;;;;;;;;;;5048060;28;20026;-82
2022/03/26 02:51:30;;;;;;;49.05;23.63;;;;;;;;;;5032314;28;20014;-81
2022/03/26 02:53:55;;;;;;;59.20;24.10;;;;;;;;;;5032266;28;20021;-82
2022/03/26 02:56:21;;;;;;;57.45;25.33;;;;;;;;;;5030100;28;20022;-82
2022/03/26 02:58:49;;;;;;;46.72;24.08;;;;;;;;;;5032357;28;20029;-82
2022/03/26 03:01:19;;;;;;;46.92;23.50;;;;;;;;;;5043014;28;20037;-81
2022/03/26 03:03:44;;;;;;;46.90;23.42;;;;;;;;;;5039727;28;20044;-81
2022/03/26 03:06:09;;;;;;;51.88;23.55;;;;;;;;;;5049372;28;20033;-82
2022/03/26 03:08:35;;;;;;;50.45;23.42;;;;;;;;;;5046777;28;20045;-82
2022/03/26 03:11:00;;;;;;;52.55;23.08;;;;;;;;;;5051534;28;20049;-82
2022/03/26 03:13:25;;;;;;;48.03;22.73;;;;;;;;;;5051555;28;20085;-81
2022/03/26 03:15:51;;;;;;;48.33;24.20;;;;;;;;;;5035445;28;20022;-81
2022/03/26 03:18:16;;;;;;;56.08;22.88;;;;;;;;;;5045717;28;20029;-82
2022/03/26 03:20:42;;;;;;;46.88;23.80;;;;;;;;;;5049362;28;20033;-82
2022/03/26 03:23:07;;;;;;;49.42;22.15;;;;;;;;;;5047048;28;20044;-82
2022/03/26 03:25:33;;;;;;;54.38;24.00;;;;;;;;;;5049181;28;20053;-82
2022/03/26 03:27:58;;;;;;;50.58;23.25;;;;;;;;;;5049044;28;20032;-82
2022/03/26 03:30:24;;;;;;;50.20;23.13;;;;;;;;;;5048769;28;20014;-81
2022/03/26 03:32:50;;;;;;;49.50;23.60;;;;;;;;;;5024174;28;20018;-80
2022/03/26 03:35:15;;;;;;;51.67;23.17;;;;;;;;;;5022832;28;20022;-82
2022/03/26 03:37:41;;;;;;;51.47;24.38;;;;;;;;;;5032062;28;20029;-81
2022/03/26 03:40:07;;;;;;;46.20;24.02;;;;;;;;;;5032519;28;20037;-80
2022/03/26 03:42:32;;;;;;;49.80;23.42;;;;;;;;;;5048548;28;20163;-82
2022/03/26 03:44:58;;;;;;;48.72;23.52;;;;;;;;;;5043522;28;20030;-81
2022/03/26 03:47:23;;;;;;;51.95;23.95;;;;;;;;;;5029478;28;20061;-81
2022/03/26 03:49:48;;;;;;;53.00;21.88;;;;;;;;;;5026214;28;20022;-81
2022/03/26 03:52:14;;;;;;;52.78;23.02;;;;;;;;;;5025699;28;20529;-81
2022/03/26 03:54:39;;;;;;;52.75;22.40;;;;;;;;;;5024512;28;20033;-81
2022/03/26 03:57:04;;;;;;;53.42;23.05;;;;;;;;;;5033207;28;20164;-81
2022/03/26 03:59:29;;;;;;;52.28;23.95;;;;;;;;;;5039527;28;20037;-81
2022/03/26 04:01:55;;;;;;;46.50;22.65;;;;;;;;;;5024904;28;20034;-81
2022/03/26 04:04:20;;;;;;;51.60;23.05;;;;;;;;;;5026143;28;20021;-80
2022/03/26 04:06:45;;;;;;;45.83;21.50;;;;;;;;;;5026436;28;20021;-81
2022/03/26 04:09:10;;;;;;;45.58;22.42;;;;;;;;;;5030165;28;20048;-81
2022/03/26 04:11:36;;;;;;;55.92;22.60;;;;;;;;;;5042327;28;20021;-81
2022/03/26 04:14:01;;;;;;;63.58;24.05;;;;;;;;;;5041245;28;20025;-81
2022/03/26 04:16:26;;;;;;;52.67;23.10;;;;;;;;;;5039834;28;20469;-81
2022/03/26 04:18:51;;;;;;;49.85;23.58;;;;;;;;;;5028477;28;20034;-81
2022/03/26 04:21:16;;;;;;;54.83;23.77;;;;;;;;;;5026990;28;20022;-82
2022/03/26 04:23:42;;;;;;;49.65;23.48;;;;;;;;;;5040751;28;20027;-81
2022/03/26 04:26:10;;;;;;;50.75;22.10;;;;;;;;;;5030593;28;20022;-82
2022/03/26 04:28:38;;;;;;;52.60;20.90;;;;;;;;;;5038518;28;20017;-82
2022/03/26 04:31:04;;;;;;;47.20;21.30;;;;;;;;;;5022853;28;20022;-82
2022/03/26 04:33:29;;;;;;;49.25;21.98;;;;;;;;;;5034456;28;20041;-82
2022/03/26 04:35:55;;;;;;;52.22;23.77;;;;;;;;;;5024172;28;20495;-81
2022/03/26 04:38:20;;;;;;;50.90;21.90;;;;;;;;;;5024231;28;20033;-82
2022/03/26 04:40:45;;;;;;;47.53;21.88;;;;;;;;;;5025265;28;20036;-80
2022/03/26 04:43:11;;;;;;;49.47;23.15;;;;;;;;;;5019235;28;20563;-79
2022/03/26 04:45:36;;;;;;;47.85;23.55;;;;;;;;;;5032658;28;20075;-80
2022/03/26 04:48:01;;;;;;;47.20;22.92;;;;;;;;;;5028065;28;20043;-81
2022/03/26 04:50:26;;;;;;;46.88;22.23;;;;;;;;;;5034899;28;20047;-81
2022/03/26 04:52:52;;;;;;;45.08;21.92;;;;;;;;;;5021815;28;20108;-81
2022/03/26 04:55:18;;;;;;;46.72;22.50;;;;;;;;;;5022943;28;20093;-82
2022/03/26 04:57:45;;;;;;;55.70;22.33;;;;;;;;;;5021339;28;20021;-80
2022/03/26 05:00:12;;;;;;;49.88;23.85;;;;;;;;;;5031772;28;20021;-81
2022/03/26 05:02:38;;;;;;;59.08;22.98;;;;;;;;;;5036406;28;20014;-82
2022/03/26 05:05:04;;;;;;;48.28;23.35;;;;;;;;;;5026627;28;20079;-80
2022/03/26 05:07:48;;;;;;;50.28;23.40;;;;;;;;;;5022935;28;20493;-80
2022/03/26 05:10:13;;;;;;;48.05;22.05;;;;;;;;;;5032230;28;20028;-80
2022/03/26 05:12:38;;;;;;;44.83;22.13;;;;;;;;;;5035401;28;20017;-81
2022/03/26 05:15:04;;;;;;;49.10;21.58;;;;;;;;;;5025843;28;20017;-80
2022/03/26 05:17:30;;;;;;;50.70;22.20;;;;;;;;;;5015968;28;20116;-80
2022/03/26 05:19:59;;;;;;;45.13;22.80;;;;;;;;;;5018311;28;20025;-82
2022/03/26 05:22:24;;;;;;;48.90;21.50;;;;;;;;;;5050928;28;20081;-83
2022/03/26 05:24:54;;;;;;;43.85;21.30;;;;;;;;;;5052611;28;20029;-83
2022/03/26 05:27:19;;;;;;;49.65;22.13;;;;;;;;;;5051737;28;20026;-83
2022/03/26 05:29:46;;;;;;;48.75;23.00;;;;;;;;;;5048316;28;20017;-82
2022/03/26 05:32:17;;;;;;;47.90;22.38;;;;;;;;;;5050100;28;20025;-84
2022/03/26 05:34:44;;;;;;;54.25;22.23;;;;;;;;;;5044428;28;20014;-84
2022/03/26 05:37:09;;;;;;;49.63;22.20;;;;;;;;;;5041455;28;20009;-82
2022/03/26 05:39:34;;;;;;;54.08;23.05;;;;;;;;;;5050957;28;20026;-84
2022/03/26 05:42:00;;;;;;;51.40;21.70;;;;;;;;;;5051560;28;20021;-83
2022/03/26 05:44:25;;;;;;;45.55;20.90;;;;;;;;;;5030015;28;20089;-84
2022/03/26 05:46:51;;;;;;;50.08;22.30;;;;;;;;;;5030182;28;20025;-84
2022/03/26 05:49:16;;;;;;;50.10;22.40;;;;;;;;;;5041544;28;20041;-82
2022/03/26 05:51:42;;;;;;;46.20;21.45;;;;;;;;;;5039679;28;20006;-84
2022/03/26 05:54:09;;;;;;;50.30;22.42;;;;;;;;;;5052711;28;20487;-82
2022/03/26 05:56:39;;;;;;;49.80;22.25;;;;;;;;;;5031429;28;20045;-82
2022/03/26 05:59:05;;;;;;;48.30;23.05;;;;;;;;;;5037428;28;20024;-82
2022/03/26 06:01:40;;;;;;;49.22;21.25;;;;;;;;;;5052118;28;20021;-83
2022/03/26 06:04:05;;;;;;;44.95;22.55;;;;;;;;;;5032667;28;20048;-83
2022/03/26 06:06:30;;;;;;;51.03;22.35;;;;;;;;;;5045097;28;20021;-83
2022/03/26 06:08:56;;;;;;;46.97;21.00;;;;;;;;;;5036850;28;20085;-82
2022/03/26 06:11:21;;;;;;;46.80;22.45;;;;;;;;;;5036634;28;20018;-82
2022/03/26 06:13:46;;;;;;;44.70;20.73;;;;;;;;;;5040355;28;20021;-82
2022/03/26 06:16:12;;;;;;;45.70;21.98;;;;;;;;;;5045821;28;20093;-82
2022/03/26 06:18:38;;;;;;;47.63;21.70;;;;;;;;;;5045562;28;20024;-82
2022/03/26 06:21:05;;;;;;;42.22;20.92;;;;;;;;;;5036699;28;20042;-82
2022/03/26 06:23:30;;;;;;;46.28;21.48;;;;;;;;;;5025445;28;20033;-81
2022/03/26 06:25:56;;;;;;;46.63;20.90;;;;;;;;;;5035095;28;20075;-82
2022/03/26 06:28:21;;;;;;;46.33;20.90;;;;;;;;;;5035459;28;20400;-81
2022/03/26 06:30:46;;;;;;;48.75;21.23;;;;;;;;;;5041446;28;20035;-82
2022/03/26 06:33:13;;;;;;;52.97;21.50;;;;;;;;;;5029556;28;20018;-82
2022/03/26 06:35:38;;;;;;;48.85;22.38;;;;;;;;;;5018448;28;20021;-81
2022/03/26 06:38:04;;;;;;;50.75;22.25;;;;;;;;;;5019138;28;20010;-82
2022/03/26 06:40:29;;;;;;;48.55;21.42;;;;;;;;;;5020327;28;20020;-82
2022/03/26 06:42:54;;;;;;;46.25;21.00;;;;;;;;;;5028927;28;20068;-81
2022/03/26 06:45:19;;;;;;;51.50;21.55;;;;;;;;;;5028013;28;20041;-81
2022/03/26 06:47:45;;;;;;;48.42;22.13;;;;;;;;;;5019769;28;20025;-81
2022/03/26 06:50:10;;;;;;;43.53;20.92;;;;;;;;;;5023924;28;20021;-81
2022/03/26 06:52:35;;;;;;;44.20;20.77;;;;;;;;;;5028635;28;20025;-82
2022/03/26 06:55:02;;;;;;;46.08;22.27;;;;;;;;;;5024913;28;20018;-81
2022/03/26 06:57:27;;;;;;;50.47;21.85;;;;;;;;;;5037840;28;20036;-80
2022/03/26 06:59:52;;;;;;;48.03;22.50;;;;;;;;;;5031521;28;20018;-82
2022/03/26 07:02:18;;;;;;;45.00;21.30;;;;;;;;;;5025303;28;20056;-81
2022/03/26 07:04:43;;;;;;;44.30;21.85;;;;;;;;;;5026258;28;20441;-80
2022/03/26 07:07:11;;;;;;;44.40;20.98;;;;;;;;;;5026827;28;20044;-81
2022/03/26 07:09:36;;;;;;;46.67;20.63;;;;;;;;;;5028682;28;20029;-81
2022/03/26 07:12:02;;;;;;;50.85;21.58;;;;;;;;;;5042525;28;20017;-81
2022/03/26 07:14:27;;;;;;;43.08;20.70;;;;;;;;;;5042953;28;20017;-81
2022/03/26 07:16:52;;;;;;;43.28;20.75;;;;;;;;;;5044443;23;20057;-78
2022/03/26 07:19:18;;;;;;;44.05;20.17;;;;;;;;;;5015789;28;20048;-78
2022/03/26 07:21:43;;;;;;;46.92;21.00;;;;;;;;;;5014934;28;20519;-77
2022/03/26 07:24:08;;;;;;;50.30;22.20;;;;;;;;;;5014227;28;20045;-78
2022/03/26 07:26:34;;;;;;;40.10;20.67;;;;;;;;;;5013944;28;20018;-78
2022/03/26 07:28:59;;;;;;;48.00;22.65;;;;;;;;;;5014943;28;20022;-78
2022/03/26 07:31:24;;;;;;;48.33;23.10;;;;;;;;;;5015229;28;20026;-77
2022/03/26 07:33:50;;;;;;;44.15;21.70;;;;;;;;;;5013973;28;20021;-78
2022/03/26 07:36:15;;;;;;;47.97;21.45;;;;;;;;;;5013802;28;20033;-76
2022/03/26 07:38:40;;;;;;;44.78;21.90;;;;;;;;;;5015031;28;20022;-78
2022/03/26 07:41:07;;;;;;;42.78;20.83;;;;;;;;;;5015297;28;20025;-78
2022/03/26 07:43:32;;;;;;;46.63;21.38;;;;;;;;;;5016473;28;20091;-77
2022/03/26 07:45:58;;;;;;;46.10;22.38;;;;;;;;;;5016781;28;20469;-80
2022/03/26 07:48:23;;;;;;;45.08;22.73;;;;;;;;;;5015379;28;20025;-79
2022/03/26 07:50:49;;;;;;;47.15;21.02;;;;;;;;;;5017657;28;20092;-79
2022/03/26 07:53:15;;;;;;;43.88;20.80;;;;;;;;;;5026395;28;20021;-80
2022/03/26 07:55:40;;;;;;;45.08;22.02;;;;;;;;;;5025307;28;20022;-79
2022/03/26 07:58:06;;;;;;;49.20;23.50;;;;;;;;;;5026647;28;20029;-80
2022/03/26 08:00:31;;;;;;;44.97;21.40;;;;;;;;;;5018219;28;20022;-80
2022/03/26 08:02:56;;;;;;;47.05;22.45;;;;;;;;;;5017024;28;20014;-78
2022/03/26 08:05:21;;;;;;;45.13;22.50;;;;;;;;;;5016210;28;20028;-80
2022/03/26 08:07:46;;;;;;;55.70;22.63;;;;;;;;;;5015911;28;20037;-79
2022/03/26 08:10:12;;;;;;;48.80;22.00;;;;;;;;;;5014919;28;20014;-78
2022/03/26 08:12:38;;;;;;;50.78;22.95;;;;;;;;;;5014925;28;20022;-79
2022/03/26 08:15:04;;;;;;;43.38;21.08;;;;;;;;;;5015127;28;20018;-83
2022/03/26 08:17:29;;;;;;;49.92;22.48;;;;;;;;;;5014305;28;20038;-78
2022/03/26 08:19:54;;;;;;;55.83;22.75;;;;;;;;;;5014301;28;20029;-81
2022/03/26 08:22:20;;;;;;;58.25;21.48;;;;;;;;;;5011978;28;20065;-80
2022/03/26 08:24:45;;;;;;;52.67;21.98;;;;;;;;;;5014508;28;20025;-78
2022/03/26 08:27:10;;;;;;;54.17;22.40;;;;;;;;;;5013707;28;20092;-79
2022/03/26 08:29:35;;;;;;;47.47;22.30;;;;;;;;;;5014659;28;20497;-77
2022/03/26 08:32:04;;;;;;;54.47;22.67;;;;;;;;;;5013926;28;20018;-78
2022/03/26 08:34:29;;;;;;;52.03;22.10;;;;;;;;;;5014128;28;20068;-79
2022/03/26 08:36:54;;;;;;;51.17;22.92;;;;;;;;;;5013198;28;20428;-79
2022/03/26 08:39:20;;;;;;;54.03;22.55;;;;;;;;;;5012737;28;20247;-79
2022/03/26 08:41:45;;;;;;;44.33;21.20;;;;;;;;;;5012069;28;20053;-77
2022/03/26 08:44:10;;;;;;;53.10;23.20;;;;;;;;;;5012224;28;20380;-79
2022/03/26 08:46:36;;;;;;;51.33;22.23;;;;;;;;;;5014163;28;20469;-78
2022/03/26 08:49:01;;;;;;;47.58;22.75;;;;;;;;;;5013432;28;20029;-82
2022/03/26 08:51:26;;;;;;;47.08;21.92;;;;;;;;;;5013182;28;20165;-78
2022/03/26 08:53:51;;;;;;;41.70;20.80;;;;;;;;;;5012124;28;20014;-78
2022/03/26 08:56:17;;;;;;;42.28;21.20;;;;;;;;;;5013567;28;20033;-79
2022/03/26 08:58:42;;;;;;;45.28;20.83;;;;;;;;;;5012996;28;20018;-80
2022/03/26 09:01:07;;;;;;;46.20;21.30;;;;;;;;;;5011281;28;20397;-78
2022/03/26 09:03:37;;;;;;;57.00;21.90;;;;;;;;;;5011488;28;20394;-80
2022/03/26 09:06:02;;;;;;;52.72;21.98;;;;;;;;;;5014067;28;20117;-79
2022/03/26 09:08:28;;;;;;;44.83;22.02;;;;;;;;;;5015667;28;20382;-79
2022/03/26 09:10:53;;;;;;;48.38;21.75;;;;;;;;;;5006162;28;20053;-80
2022/03/26 09:13:18;;;;;;;44.78;21.10;;;;;;;;;;5013406;28;20022;-80
2022/03/26 09:15:44;;;;;;;46.47;20.85;;;;;;;;;;5010294;28;20033;-79
2022/03/26 09:18:09;;;;;;;47.80;20.60;;;;;;;;;;5008608;28;20044;-80
2022/03/26 09:20:34;;;;;;;51.40;22.52;;;;;;;;;;5014922;28;20044;-80
2022/03/26 09:23:00;;;;;;;44.67;19.83;;;;;;;;;;5013062;28;20105;-80
2022/03/26 09:25:25;;;;;;;40.97;20.38;;;;;;;;;;5012749;28;20117;-77
2022/03/26 09:27:50;;;;;;;40.08;19.10;;;;;;;;;;5011730;28;20037;-77
2022/03/26 09:30:16;;;;;;;45.47;20.33;;;;;;;;;;5011996;28;20029;-77
2022/03/26 09:32:44;;;;;;;43.05;19.55;;;;;;;;;;5012591;28;20022;-78
2022/03/26 09:35:09;;;;;;;44.08;19.30;;;;;;;;;;5013082;28;20026;-77
2022/03/26 09:37:35;;;;;;;44.22;19.77;;;;;;;;;;5013802;28;20021;-77
2022/03/26 09:40:02;;;;;;;38.40;18.85;;;;;;;;;;5013646;28;20022;-78
2022/03/26 09:42:28;;;;;;;41.58;19.58;;;;;;;;;;4998765;28;20042;-78
2022/03/26 09:44:54;;;;;;;46.88;19.92;;;;;;;;;;5013824;28;20457;-76
2022/03/26 09:47:20;;;;;;;40.88;19.40;;;;;;;;;;5015752;28;20113;-77
2022/03/26 09:49:46;;;;;;;42.58;18.77;;;;;;;;;;5013264;28;20026;-77
2022/03/26 09:52:13;;;;;;;36.55;17.77;;;;;;;;;;5011592;28;20377;-77
2022/03/26 09:54:38;;;;;;;37.33;18.25;;;;;;;;;;5011948;28;20017;-79
2022/03/26 09:57:04;;;;;;;39.08;17.52;;;;;;;;;;5013128;28;20477;-76
2022/03/26 09:59:29;;;;;;;37.78;18.38;;;;;;;;;;5011287;28;20092;-76
2022/03/26 10:01:54;;;;;;;39.00;17.20;;;;;;;;;;5014480;28;20398;-77
2022/03/26 10:04:21;;;;;;;37.58;18.30;;;;;;;;;;5013014;28;20393;-75
2022/03/26 10:06:56;;;;;;;36.50;17.38;;;;;;;;;;5013451;28;20026;-77
2022/03/26 10:09:35;;;;;;;38.38;16.88;;;;;;;;;;5013125;28;20018;-76
2022/03/26 10:12:02;;;;;;;32.92;17.02;;;;;;;;;;5011070;28;20481;-76
2022/03/26 10:14:41;;;;;;;36.15;16.70;;;;;;;;;;5012452;28;20022;-75
2022/03/26 10:17:15;;;;;;;33.88;16.48;;;;;;;;;;5011055;28;20029;-77
2022/03/26 10:19:47;;;;;;;27.60;14.95;;;;;;;;;;5011071;28;20497;-78
2022/03/26 10:22:21;;;;;;;33.25;16.70;;;;;;;;;;5012691;28;20096;-77
2022/03/26 10:24:47;;;;;;;29.50;15.48;;;;;;;;;;5011462;28;20029;-78
2022/03/26 10:27:12;;;;;;;28.97;14.33;;;;;;;;;;5011246;28;20022;-78
2022/03/26 10:29:51;;;;;;;35.58;15.63;;;;;;;;;;5011529;28;20321;-78
2022/03/26 10:32:41;;;;;;;37.65;15.48;;;;;;;;;;5011112;28;20121;-79
2022/03/26 10:35:07;;;;;;;27.02;13.30;;;;;;;;;;5011898;28;20026;-78
2022/03/26 10:38:01;;;;;;;25.67;13.50;;;;;;;;;;5012973;28;20389;-79
2022/03/26 10:40:31;;;;;;;24.38;12.68;;;;;;;;;;4987488;28;20113;-76
2022/03/26 10:42:56;;;;;;;26.23;13.65;;;;;;;;;;5010021;28;20450;-77
2022/03/26 10:45:22;;;;;;;27.10;14.67;;;;;;;;;;5010775;28;20021;-78
2022/03/26 10:47:48;;;;;;;29.73;15.20;;;;;;;;;;5011644;28;20275;-81
2022/03/26 10:50:14;;;;;;;27.60;14.55;;;;;;;;;;5010570;28;20109;-78
2022/03/26 10:52:39;;;;;;;28.45;14.75;;;;;;;;;;5013804;28;20105;-77
2022/03/26 10:55:12;;;;;;;31.70;13.40;;;;;;;;;;5014528;28;20473;-78
2022/03/26 10:57:38;;;;;;;23.75;11.90;;;;;;;;;;5014064;28;20474;-78
2022/03/26 11:00:03;;;;;;;16.10;9.65;;;;;;;;;;5016306;28;20026;-78
2022/03/26 11:02:28;;;;;;;18.20;9.60;;;;;;;;;;5013535;28;20569;-77
2022/03/26 11:04:53;;;;;;;19.65;8.23;;;;;;;;;;5015182;28;20489;-79
2022/03/26 11:07:19;;;;;;;17.23;8.52;;;;;;;;;;5014612;28;20501;-78
2022/03/26 11:09:54;;;;;;;16.90;8.60;;;;;;;;;;5014716;28;20029;-78
2022/03/26 11:12:20;;;;;;;17.88;9.02;;;;;;;;;;5014821;28;20071;-79
2022/03/26 11:14:46;;;;;;;16.02;9.13;;;;;;;;;;5015205;28;20014;-79
2022/03/26 11:17:30;;;;;;;17.15;8.75;;;;;;;;;;5013425;28;20026;-78
2022/03/26 11:20:04;;;;;;;15.98;6.82;;;;;;;;;;5013695;28;20021;-80
2022/03/26 11:22:40;;;;;;;19.30;7.75;;;;;;;;;;5002336;28;20145;-77
2022/03/26 11:25:28;;;;;;;14.85;8.02;;;;;;;;;;5014553;28;20014;-80
2022/03/26 11:28:08;;;;;;;14.48;6.00;;;;;;;;;;5014343;28;20028;-79
2022/03/26 11:30:40;;;;;;;13.75;7.05;;;;;;;;;;4999694;28;20022;-78
2022/03/26 11:33:12;;;;;;;14.82;6.40;;;;;;;;;;5013261;28;20032;-79
2022/03/26 11:35:59;;;;;;;20.88;6.43;;;;;;;;;;5016230;28;20075;-78
2022/03/26 11:38:28;;;;;;;20.90;6.45;;;;;;;;;;5017544;28;20072;-79
2022/03/26 11:40:57;;;;;;;14.70;7.35;;;;;;;;;;5013089;28;20017;-78
2022/03/26 11:43:40;;;;;;;15.05;6.55;;;;;;;;;;5014226;28;20010;-79
2022/03/26 11:51:35;;;;;;;14.80;7.18;;;;;;;;;;5014043;28;20033;-80
2022/03/26 11:54:06;;;;;;;12.27;6.80;;;;;;;;;;5012918;28;20022;-79
2022/03/26 11:56:32;;;;;;;16.00;6.60;;;;;;;;;;5014059;28;20018;-80
2022/03/26 11:59:20;;;;;;;13.60;7.38;;;;;;;;;;5013432;28;20029;-80
2022/03/26 12:01:49;;;;;;;14.30;6.63;;;;;;;;;;5012924;28;20444;-80
2022/03/26 12:04:15;;;;;;;16.67;7.63;;;;;;;;;;5013458;28;20041;-81
2022/03/26 12:06:51;;;;;;;10.68;6.25;;;;;;;;;;5012521;28;20098;-80
2022/03/26 12:09:32;;;;;;;11.23;6.45;;;;;;;;;;5013181;28;20072;-80
2022/03/26 12:12:15;;;;;;;10.73;6.43;;;;;;;;;;5011612;28;20018;-80
2022/03/26 12:14:59;;;;;;;15.55;6.35;;;;;;;;;;5012883;28;20109;-80
2022/03/26 12:17:44;;;;;;;12.90;6.80;;;;;;;;;;5013343;28;20030;-79
2022/03/26 12:20:26;;;;;;;13.57;6.95;;;;;;;;;;5013053;28;20044;-80
2022/03/26 12:23:06;;;;;;;11.93;5.95;;;;;;;;;;5011762;28;20074;-80
2022/03/26 12:25:39;;;;;;;15.30;5.25;;;;;;;;;;5011875;28;20044;-79
2022/03/26 12:28:04;;;;;;;11.75;4.80;;;;;;;;;;5012653;28;20028;-78
2022/03/26 12:30:30;;;;;;;13.13;5.55;;;;;;;;;;5012698;28;20412;-79
2022/03/26 12:32:58;;;;;;;14.00;6.13;;;;;;;;;;5012424;28;20037;-79
2022/03/26 12:35:24;;;;;;;7.97;5.22;;;;;;;;;;5012821;28;20058;-79
2022/03/26 12:37:50;;;;;;;10.80;5.35;;;;;;;;;;5012939;28;20449;-78
2022/03/26 12:40:16;;;;;;;26.38;6.15;;;;;;;;;;5011372;28;20029;-78
2022/03/26 12:42:41;;;;;;;10.60;4.75;;;;;;;;;;5010147;28;20013;-79
2022/03/26 12:45:14;;;;;;;9.20;4.85;;;;;;;;;;5012634;28;20030;-78
2022/03/26 12:47:42;;;;;;;9.20;5.10;;;;;;;;;;5023429;28;20485;-78
2022/03/26 12:50:08;;;;;;;15.95;5.68;;;;;;;;;;5014894;28;20014;-79
2022/03/26 12:52:34;;;;;;;13.77;5.22;;;;;;;;;;5012969;28;20026;-80
2022/03/26 12:54:59;;;;;;;10.05;5.03;;;;;;;;;;5012467;28;20080;-79
2022/03/26 12:58:56;;;;;;;10.63;4.25;;;;;;;;;;5009674;28;20025;-78
2022/03/26 13:00:11;;;;;;;13.32;5.15;;;;;;;;;;5012141;28;20030;-79
2022/03/26 13:02:37;;;;;;;14.70;5.40;;;;;;;;;;5010808;28;20037;-78
2022/03/26 13:05:02;;;;;;;10.88;4.50;;;;;;;;;;5012402;28;20147;-79
2022/03/26 13:07:35;;;;;;;14.00;4.18;;;;;;;;;;5012332;28;20059;-79
2022/03/26 13:10:01;;;;;;;6.85;3.65;;;;;;;;;;5012490;28;20126;-78
2022/03/26 13:12:27;;;;;;;9.48;3.75;;;;;;;;;;5012060;28;20093;-79
2022/03/26 13:14:53;;;;;;;9.52;3.85;;;;;;;;;;5009946;28;20424;-79
2022/03/26 13:17:21;;;;;;;9.48;4.00;;;;;;;;;;5026236;23;20020;-80
2022/03/26 13:19:47;;;;;;;8.35;3.90;;;;;;;;;;5030084;28;20036;-80
2022/03/26 13:22:16;;;;;;;9.15;3.80;;;;;;;;;;5030935;28;20017;-80
2022/03/26 13:24:51;;;;;;;9.07;3.85;;;;;;;;;;5030680;28;20025;-80
2022/03/26 13:27:17;;;;;;;6.80;3.55;;;;;;;;;;5031682;28;20036;-79
2022/03/26 13:29:43;;;;;;;9.10;3.70;;;;;;;;;;5030389;28;20096;-80
2022/03/26 13:32:11;;;;;;;11.40;3.80;;;;;;;;;;5031816;28;20045;-80
2022/03/26 13:34:36;;;;;;;;;;;;;;;;;;5030234;28;20266;-78
2022/03/26 13:37:08;;;;;;;12.48;4.82;;;;;;;;;;5031240;28;20343;-81
2022/03/26 13:39:33;;;;;;;12.88;4.97;;;;;;;;;;5031884;28;20097;-79
2022/03/26 13:42:08;;;;;;;6.85;4.20;;;;;;;;;;5031236;28;20109;-80
2022/03/26 13:44:33;;;;;;;9.98;4.93;;;;;;;;;;5014881;28;20021;-80
2022/03/26 13:46:59;;;;;;;14.98;5.40;;;;;;;;;;5030997;28;20028;-81
2022/03/26 13:49:24;;;;;;;13.73;5.93;;;;;;;;;;5031719;28;20072;-79
2022/03/26 13:51:50;;;;;;;12.40;4.63;;;;;;;;;;5028901;28;20025;-80
2022/03/26 13:54:19;;;;;;;12.27;4.93;;;;;;;;;;5030991;28;20022;-80
2022/03/26 13:56:50;;;;;;;10.20;5.55;;;;;;;;;;5029883;28;20025;-81
2022/03/26 13:59:15;;;;;;;8.43;4.82;;;;;;;;;;5030936;28;20017;-81
2022/03/26 14:01:41;;;;;;;24.23;6.85;;;;;;;;;;5031346;28;20044;-80
2022/03/26 14:04:07;;;;;;;16.48;6.07;;;;;;;;;;5031622;28;20033;-80
2022/03/26 14:06:35;;;;;;;14.32;5.47;;;;;;;;;;5030384;28;20116;-81
2022/03/26 14:09:02;;;;;;;8.57;5.13;;;;;;;;;;5031390;28;20028;-81
2022/03/26 14:11:27;;;;;;;11.40;5.18;;;;;;;;;;5031222;28;20087;-80
2022/03/26 14:13:53;;;;;;;10.60;5.23;;;;;;;;;;5028425;28;20477;-81
2022/03/26 14:16:18;;;;;;;11.30;5.57;;;;;;;;;;5030931;28;20144;-79
2022/03/26 14:18:43;;;;;;;9.45;5.35;;;;;;;;;;5030944;28;20324;-81
2022/03/26 14:21:09;;;;;;;10.63;5.43;;;;;;;;;;5030714;28;20022;-82
2022/03/26 14:23:34;;;;;;;10.98;6.30;;;;;;;;;;5029303;28;20442;-80
2022/03/26 14:25:59;;;;;;;15.20;5.82;;;;;;;;;;5033136;28;20116;-80